sensor_id;sensor_type;location;lat;lon;timestamp;pressure;altitude;pressure_sealevel;temperature;humidity
26657;BME280;14279;50.010;8.260;2023-05-21T00:00:24;100246.59;;;18.69;64.32
26657;BME280;14279;50.010;8.260;2023-05-21T00:02:50;100244.41;;;18.74;64.28
26657;BME280;14279;50.010;8.260;2023-05-21T00:05:15;100251.28;;;18.65;64.74
26657;BME280;14279;50.010;8.260;2023-05-21T00:07:42;100244.66;;;18.71;64.67
26657;BME280;14279;50.010;8.260;2023-05-21T00:10:08;100248.72;;;18.75;64.26
26657;BME280;14279;50.010;8.260;2023-05-21T00:12:34;100240.25;;;18.71;64.29
26657;BME280;14279;50.010;8.260;2023-05-21T00:15:00;100248.50;;;18.67;64.27
26657;BME280;14279;50.010;8.260;2023-05-21T00:17:26;100235.63;;;18.63;64.42
26657;BME280;14279;50.010;8.260;2023-05-21T00:19:52;100236.31;;;18.66;64.75
26657;BME280;14279;50.010;8.260;2023-05-21T00:22:17;100234.97;;;18.71;64.63
26657;BME280;14279;50.010;8.260;2023-05-21T00:24:44;100233.47;;;18.78;64.21
26657;BME280;14279;50.010;8.260;2023-05-21T00:27:10;100229.69;;;18.71;64.53
26657;BME280;14279;50.010;8.260;2023-05-21T00:29:35;100223.47;;;18.72;64.38
26657;BME280;14279;50.010;8.260;2023-05-21T00:32:01;100220.22;;;18.69;64.44
26657;BME280;14279;50.010;8.260;2023-05-21T00:34:26;100226.34;;;18.69;64.51
26657;BME280;14279;50.010;8.260;2023-05-21T00:36:51;100225.94;;;18.53;65.00
26657;BME280;14279;50.010;8.260;2023-05-21T00:39:19;100217.81;;;18.44;65.34
26657;BME280;14279;50.010;8.260;2023-05-21T00:41:44;100224.88;;;18.44;65.48
26657;BME280;14279;50.010;8.260;2023-05-21T00:44:10;100228.94;;;18.48;65.55
26657;BME280;14279;50.010;8.260;2023-05-21T00:46:39;100220.06;;;18.49;65.49
26657;BME280;14279;50.010;8.260;2023-05-21T00:49:05;100213.34;;;18.56;65.08
26657;BME280;14279;50.010;8.260;2023-05-21T00:51:31;100205.84;;;18.52;65.27
26657;BME280;14279;50.010;8.260;2023-05-21T00:53:56;100204.22;;;18.60;64.87
26657;BME280;14279;50.010;8.260;2023-05-21T00:56:23;100212.56;;;18.44;65.46
26657;BME280;14279;50.010;8.260;2023-05-21T00:58:49;100210.97;;;18.53;65.38
26657;BME280;14279;50.010;8.260;2023-05-21T01:01:18;100207.81;;;18.59;64.61
26657;BME280;14279;50.010;8.260;2023-05-21T01:03:43;100207.22;;;18.56;65.29
26657;BME280;14279;50.010;8.260;2023-05-21T01:06:10;100205.94;;;18.50;64.59
26657;BME280;14279;50.010;8.260;2023-05-21T01:08:36;100204.41;;;18.47;64.55
26657;BME280;14279;50.010;8.260;2023-05-21T01:11:04;100198.53;;;18.44;64.86
26657;BME280;14279;50.010;8.260;2023-05-21T01:13:30;100204.09;;;18.29;65.12
26657;BME280;14279;50.010;8.260;2023-05-21T01:15:57;100187.66;;;18.37;65.09
26657;BME280;14279;50.010;8.260;2023-05-21T01:18:23;100192.59;;;18.30;65.65
26657;BME280;14279;50.010;8.260;2023-05-21T01:20:49;100200.00;;;18.37;65.79
26657;BME280;14279;50.010;8.260;2023-05-21T01:23:18;100194.31;;;18.53;64.72
26657;BME280;14279;50.010;8.260;2023-05-21T01:25:44;100190.91;;;18.41;64.74
26657;BME280;14279;50.010;8.260;2023-05-21T01:28:10;100191.59;;;18.43;65.14
26657;BME280;14279;50.010;8.260;2023-05-21T01:30:36;100195.63;;;18.47;65.13
26657;BME280;14279;50.010;8.260;2023-05-21T01:33:09;100184.28;;;18.46;64.96
26657;BME280;14279;50.010;8.260;2023-05-21T01:35:49;100180.34;;;18.41;65.56
26657;BME280;14279;50.010;8.260;2023-05-21T01:38:47;100182.59;;;18.45;64.90
26657;BME280;14279;50.010;8.260;2023-05-21T01:41:16;100180.47;;;18.39;64.90
26657;BME280;14279;50.010;8.260;2023-05-21T01:43:44;100184.69;;;18.30;65.24
26657;BME280;14279;50.010;8.260;2023-05-21T01:46:14;100177.00;;;18.39;64.92
26657;BME280;14279;50.010;8.260;2023-05-21T01:48:42;100173.59;;;18.27;65.27
26657;BME280;14279;50.010;8.260;2023-05-21T01:51:08;100171.75;;;18.39;65.44
26657;BME280;14279;50.010;8.260;2023-05-21T01:53:33;100172.06;;;18.45;64.54
26657;BME280;14279;50.010;8.260;2023-05-21T01:55:59;100171.22;;;18.45;64.47
26657;BME280;14279;50.010;8.260;2023-05-21T01:58:24;100167.44;;;18.38;64.73
26657;BME280;14279;50.010;8.260;2023-05-21T02:00:50;100167.19;;;18.41;64.68
26657;BME280;14279;50.010;8.260;2023-05-21T02:03:16;100166.19;;;18.42;64.53
26657;BME280;14279;50.010;8.260;2023-05-21T02:05:42;100169.34;;;18.36;64.86
26657;BME280;14279;50.010;8.260;2023-05-21T02:08:07;100156.91;;;18.26;65.52
26657;BME280;14279;50.010;8.260;2023-05-21T02:10:34;100156.19;;;18.36;64.69
26657;BME280;14279;50.010;8.260;2023-05-21T02:12:59;100154.50;;;18.35;64.64
26657;BME280;14279;50.010;8.260;2023-05-21T02:15:24;100163.22;;;18.14;65.48
26657;BME280;14279;50.010;8.260;2023-05-21T02:17:50;100162.19;;;18.26;64.97
26657;BME280;14279;50.010;8.260;2023-05-21T02:20:15;100155.25;;;18.25;65.15
26657;BME280;14279;50.010;8.260;2023-05-21T02:22:43;100163.16;;;18.25;64.93
26657;BME280;14279;50.010;8.260;2023-05-21T02:25:10;100159.00;;;18.11;65.30
26657;BME280;14279;50.010;8.260;2023-05-21T02:27:37;100159.34;;;18.18;65.12
26657;BME280;14279;50.010;8.260;2023-05-21T02:30:03;100158.28;;;18.09;65.49
26657;BME280;14279;50.010;8.260;2023-05-21T02:32:29;100160.84;;;17.99;65.82
26657;BME280;14279;50.010;8.260;2023-05-21T02:34:58;100159.84;;;18.12;65.40
26657;BME280;14279;50.010;8.260;2023-05-21T02:37:24;100153.50;;;18.14;65.37
26657;BME280;14279;50.010;8.260;2023-05-21T02:39:51;100160.22;;;18.07;65.56
26657;BME280;14279;50.010;8.260;2023-05-21T02:42:17;100160.69;;;18.12;65.40
26657;BME280;14279;50.010;8.260;2023-05-21T02:44:42;100159.00;;;18.11;65.26
26657;BME280;14279;50.010;8.260;2023-05-21T02:47:07;100159.88;;;18.00;65.70
26657;BME280;14279;50.010;8.260;2023-05-21T02:49:34;100161.16;;;18.06;65.54
26657;BME280;14279;50.010;8.260;2023-05-21T02:51:59;100160.22;;;18.07;65.35
26657;BME280;14279;50.010;8.260;2023-05-21T02:54:24;100161.16;;;18.17;65.11
26657;BME280;14279;50.010;8.260;2023-05-21T02:56:50;100165.38;;;18.09;65.27
26657;BME280;14279;50.010;8.260;2023-05-21T02:59:15;100160.19;;;18.18;65.13
26657;BME280;14279;50.010;8.260;2023-05-21T03:01:40;100157.34;;;18.10;65.18
26657;BME280;14279;50.010;8.260;2023-05-21T03:04:05;100154.34;;;18.15;65.27
26657;BME280;14279;50.010;8.260;2023-05-21T03:06:31;100161.97;;;18.18;65.22
26657;BME280;14279;50.010;8.260;2023-05-21T03:08:56;100156.50;;;18.10;65.34
26657;BME280;14279;50.010;8.260;2023-05-21T03:11:21;100163.66;;;18.19;65.47
26657;BME280;14279;50.010;8.260;2023-05-21T03:13:46;100152.91;;;18.11;65.68
26657;BME280;14279;50.010;8.260;2023-05-21T03:16:12;100156.63;;;18.08;66.01
26657;BME280;14279;50.010;8.260;2023-05-21T03:18:38;100148.59;;;18.10;65.47
26657;BME280;14279;50.010;8.260;2023-05-21T03:21:03;100146.31;;;18.16;65.11
26657;BME280;14279;50.010;8.260;2023-05-21T03:23:29;100149.06;;;18.15;65.10
26657;BME280;14279;50.010;8.260;2023-05-21T03:25:55;100143.03;;;18.24;65.23
26657;BME280;14279;50.010;8.260;2023-05-21T03:28:21;100149.88;;;18.27;65.21
26657;BME280;14279;50.010;8.260;2023-05-21T03:30:47;100150.47;;;18.19;65.10
26657;BME280;14279;50.010;8.260;2023-05-21T03:33:13;100149.16;;;18.25;64.67
26657;BME280;14279;50.010;8.260;2023-05-21T03:35:39;100150.63;;;18.17;65.44
26657;BME280;14279;50.010;8.260;2023-05-21T03:38:04;100152.91;;;18.11;65.92
26657;BME280;14279;50.010;8.260;2023-05-21T03:40:30;100147.97;;;18.17;65.88
26657;BME280;14279;50.010;8.260;2023-05-21T03:42:55;100150.38;;;18.21;65.35
26657;BME280;14279;50.010;8.260;2023-05-21T03:45:20;100151.44;;;18.18;65.70
26657;BME280;14279;50.010;8.260;2023-05-21T03:47:45;100151.72;;;18.15;65.87
26657;BME280;14279;50.010;8.260;2023-05-21T03:50:12;100150.38;;;18.09;65.87
26657;BME280;14279;50.010;8.260;2023-05-21T03:52:38;100155.66;;;18.09;66.09
26657;BME280;14279;50.010;8.260;2023-05-21T03:55:03;100152.06;;;18.10;66.29
26657;BME280;14279;50.010;8.260;2023-05-21T03:57:29;100151.88;;;18.02;66.52
26657;BME280;14279;50.010;8.260;2023-05-21T03:59:54;100160.94;;;18.09;66.29
26657;BME280;14279;50.010;8.260;2023-05-21T04:02:20;100156.53;;;17.87;67.11
26657;BME280;14279;50.010;8.260;2023-05-21T04:04:45;100147.66;;;17.99;66.49
26657;BME280;14279;50.010;8.260;2023-05-21T04:07:11;100153.97;;;18.08;66.21
26657;BME280;14279;50.010;8.260;2023-05-21T04:09:40;100154.44;;;18.13;66.22
26657;BME280;14279;50.010;8.260;2023-05-21T04:12:05;100150.38;;;18.09;66.40
26657;BME280;14279;50.010;8.260;2023-05-21T04:14:31;100146.28;;;18.28;65.40
26657;BME280;14279;50.010;8.260;2023-05-21T04:16:57;100151.88;;;18.35;65.24
26657;BME280;14279;50.010;8.260;2023-05-21T04:19:22;100152.03;;;18.22;64.98
26657;BME280;14279;50.010;8.260;2023-05-21T04:21:47;100153.75;;;18.11;65.35
26657;BME280;14279;50.010;8.260;2023-05-21T04:24:12;100155.50;;;18.22;64.99
26657;BME280;14279;50.010;8.260;2023-05-21T04:26:38;100160.19;;;18.18;65.31
26657;BME280;14279;50.010;8.260;2023-05-21T04:29:06;100162.19;;;18.26;65.54
26657;BME280;14279;50.010;8.260;2023-05-21T04:31:32;100165.53;;;18.28;66.00
26657;BME280;14279;50.010;8.260;2023-05-21T04:33:57;100155.84;;;18.29;64.78
26657;BME280;14279;50.010;8.260;2023-05-21T04:36:23;100156.63;;;18.41;64.35
26657;BME280;14279;50.010;8.260;2023-05-21T04:38:48;100164.25;;;18.44;64.22
26657;BME280;14279;50.010;8.260;2023-05-21T04:41:14;100160.75;;;18.55;64.09
26657;BME280;14279;50.010;8.260;2023-05-21T04:43:39;100162.34;;;18.46;64.41
26657;BME280;14279;50.010;8.260;2023-05-21T04:46:08;100168.53;;;18.56;64.45
26657;BME280;14279;50.010;8.260;2023-05-21T04:48:33;100165.13;;;18.44;64.24
26657;BME280;14279;50.010;8.260;2023-05-21T04:50:59;100168.00;;;18.41;64.78
26657;BME280;14279;50.010;8.260;2023-05-21T04:53:24;100170.00;;;18.49;64.52
26657;BME280;14279;50.010;8.260;2023-05-21T04:55:50;100175.72;;;18.54;64.56
26657;BME280;14279;50.010;8.260;2023-05-21T04:58:15;100172.59;;;18.60;64.26
26657;BME280;14279;50.010;8.260;2023-05-21T05:00:42;100175.22;;;18.60;64.01
26657;BME280;14279;50.010;8.260;2023-05-21T05:03:10;100175.69;;;18.66;63.83
26657;BME280;14279;50.010;8.260;2023-05-21T05:05:36;100164.16;;;18.67;64.04
26657;BME280;14279;50.010;8.260;2023-05-21T05:08:01;100167.00;;;18.75;64.09
26657;BME280;14279;50.010;8.260;2023-05-21T05:10:27;100172.16;;;18.76;63.99
26657;BME280;14279;50.010;8.260;2023-05-21T05:12:53;100172.38;;;18.95;63.65
26657;BME280;14279;50.010;8.260;2023-05-21T05:15:18;100168.28;;;19.02;62.68
26657;BME280;14279;50.010;8.260;2023-05-21T05:17:43;100162.47;;;18.98;62.54
26657;BME280;14279;50.010;8.260;2023-05-21T05:20:10;100160.53;;;19.00;62.23
26657;BME280;14279;50.010;8.260;2023-05-21T05:22:35;100161.19;;;19.23;61.57
26657;BME280;14279;50.010;8.260;2023-05-21T05:25:00;100160.88;;;19.17;61.59
26657;BME280;14279;50.010;8.260;2023-05-21T05:27:25;100161.13;;;18.92;62.11
26657;BME280;14279;50.010;8.260;2023-05-21T05:29:51;100153.31;;;19.33;61.29
26657;BME280;14279;50.010;8.260;2023-05-21T05:32:16;100156.78;;;19.34;60.86
26657;BME280;14279;50.010;8.260;2023-05-21T05:34:43;100155.59;;;19.48;60.50
26657;BME280;14279;50.010;8.260;2023-05-21T05:37:09;100155.13;;;19.74;60.12
26657;BME280;14279;50.010;8.260;2023-05-21T05:39:34;100154.44;;;19.81;59.92
26657;BME280;14279;50.010;8.260;2023-05-21T05:41:59;100162.63;;;19.78;59.97
26657;BME280;14279;50.010;8.260;2023-05-21T05:44:25;100161.22;;;19.84;59.56
26657;BME280;14279;50.010;8.260;2023-05-21T05:46:50;100157.19;;;19.80;59.92
26657;BME280;14279;50.010;8.260;2023-05-21T05:49:16;100155.28;;;19.92;59.58
26657;BME280;14279;50.010;8.260;2023-05-21T05:51:41;100152.81;;;20.00;59.21
26657;BME280;14279;50.010;8.260;2023-05-21T05:54:06;100153.22;;;19.95;59.50
26657;BME280;14279;50.010;8.260;2023-05-21T05:56:31;100150.88;;;20.02;59.73
26657;BME280;14279;50.010;8.260;2023-05-21T05:58:57;100155.31;;;20.11;59.36
26657;BME280;14279;50.010;8.260;2023-05-21T06:01:23;100152.41;;;20.44;58.59
26657;BME280;14279;50.010;8.260;2023-05-21T06:04:11;100155.16;;;20.52;58.19
26657;BME280;14279;50.010;8.260;2023-05-21T06:07:15;100152.00;;;20.39;58.60
26657;BME280;14279;50.010;8.260;2023-05-21T06:09:40;100150.59;;;20.45;58.86
26657;BME280;14279;50.010;8.260;2023-05-21T06:12:05;100155.19;;;20.82;57.81
26657;BME280;14279;50.010;8.260;2023-05-21T06:14:31;100152.78;;;20.59;58.45
26657;BME280;14279;50.010;8.260;2023-05-21T06:16:56;100158.34;;;20.95;57.96
26657;BME280;14279;50.010;8.260;2023-05-21T06:19:21;100157.69;;;21.21;56.93
26657;BME280;14279;50.010;8.260;2023-05-21T06:21:47;100155.63;;;21.15;57.30
26657;BME280;14279;50.010;8.260;2023-05-21T06:24:12;100157.56;;;21.13;57.63
26657;BME280;14279;50.010;8.260;2023-05-21T06:26:37;100159.16;;;21.33;56.78
26657;BME280;14279;50.010;8.260;2023-05-21T06:29:02;100167.72;;;21.27;57.43
26657;BME280;14279;50.010;8.260;2023-05-21T06:31:28;100166.06;;;21.16;57.28
26657;BME280;14279;50.010;8.260;2023-05-21T06:33:53;100167.53;;;21.29;57.18
26657;BME280;14279;50.010;8.260;2023-05-21T06:36:18;100161.38;;;21.38;56.66
26657;BME280;14279;50.010;8.260;2023-05-21T06:38:43;100160.84;;;21.35;57.04
26657;BME280;14279;50.010;8.260;2023-05-21T06:41:09;100158.69;;;21.48;56.56
26657;BME280;14279;50.010;8.260;2023-05-21T06:43:43;100162.31;;;21.47;56.94
26657;BME280;14279;50.010;8.260;2023-05-21T07:02:52;100164.09;;;21.84;56.34
26657;BME280;14279;50.010;8.260;2023-05-21T07:05:57;100170.09;;;22.22;55.00
26657;BME280;14279;50.010;8.260;2023-05-21T07:12:06;100170.47;;;21.91;56.25
26657;BME280;14279;50.010;8.260;2023-05-21T07:18:15;100171.84;;;22.14;54.91
26657;BME280;14279;50.010;8.260;2023-05-21T07:21:35;100176.69;;;22.18;54.74
26657;BME280;14279;50.010;8.260;2023-05-21T07:30:31;100164.31;;;21.91;54.93
26657;BME280;14279;50.010;8.260;2023-05-21T07:48:38;100162.44;;;22.19;53.58
26657;BME280;14279;50.010;8.260;2023-05-21T07:51:18;100151.69;;;22.39;53.23
26657;BME280;14279;50.010;8.260;2023-05-21T07:53:44;100156.53;;;22.44;53.12
26657;BME280;14279;50.010;8.260;2023-05-21T07:56:10;100152.22;;;22.06;54.09
26657;BME280;14279;50.010;8.260;2023-05-21T08:02:28;100153.59;;;22.47;53.02
26657;BME280;14279;50.010;8.260;2023-05-21T08:08:17;100152.06;;;22.89;52.00
26657;BME280;14279;50.010;8.260;2023-05-21T08:10:43;100148.19;;;22.57;52.67
26657;BME280;14279;50.010;8.260;2023-05-21T08:13:10;100148.97;;;22.49;53.25
26657;BME280;14279;50.010;8.260;2023-05-21T08:15:35;100142.97;;;22.47;53.26
26657;BME280;14279;50.010;8.260;2023-05-21T08:18:00;100147.84;;;22.78;52.60
26657;BME280;14279;50.010;8.260;2023-05-21T08:20:26;100144.66;;;23.01;52.39
26657;BME280;14279;50.010;8.260;2023-05-21T08:22:51;100151.81;;;23.26;51.51
26657;BME280;14279;50.010;8.260;2023-05-21T08:25:20;100153.88;;;22.88;52.39
26657;BME280;14279;50.010;8.260;2023-05-21T08:27:45;100156.31;;;22.37;53.41
26657;BME280;14279;50.010;8.260;2023-05-21T08:30:11;100150.72;;;22.85;52.36
26657;BME280;14279;50.010;8.260;2023-05-21T08:32:38;100154.63;;;22.72;51.71
26657;BME280;14279;50.010;8.260;2023-05-21T08:35:04;100158.66;;;22.85;51.98
26657;BME280;14279;50.010;8.260;2023-05-21T08:44:11;100156.66;;;23.13;51.68
26657;BME280;14279;50.010;8.260;2023-05-21T08:46:38;100154.69;;;23.41;51.22
26657;BME280;14279;50.010;8.260;2023-05-21T08:49:05;100157.03;;;23.53;50.57
26657;BME280;14279;50.010;8.260;2023-05-21T08:51:33;100155.13;;;22.76;51.93
26657;BME280;14279;50.010;8.260;2023-05-21T08:54:00;100150.47;;;23.04;51.70
26657;BME280;14279;50.010;8.260;2023-05-21T08:56:26;100150.81;;;23.27;50.93
26657;BME280;14279;50.010;8.260;2023-05-21T09:14:29;100144.63;;;22.66;52.53
26657;BME280;14279;50.010;8.260;2023-05-21T09:16:55;100141.97;;;22.92;52.22
26657;BME280;14279;50.010;8.260;2023-05-21T09:19:20;100148.00;;;23.03;52.35
26657;BME280;14279;50.010;8.260;2023-05-21T09:21:51;100142.31;;;22.97;51.60
26657;BME280;14279;50.010;8.260;2023-05-21T09:24:25;100129.72;;;23.26;51.47
26657;BME280;14279;50.010;8.260;2023-05-21T09:26:56;100141.22;;;23.35;51.57
26657;BME280;14279;50.010;8.260;2023-05-21T09:29:25;100139.81;;;23.65;51.13
26657;BME280;14279;50.010;8.260;2023-05-21T09:31:50;100134.50;;;23.74;50.16
26657;BME280;14279;50.010;8.260;2023-05-21T09:34:16;100136.31;;;23.65;50.76
26657;BME280;14279;50.010;8.260;2023-05-21T09:36:41;100135.19;;;23.24;50.72
26657;BME280;14279;50.010;8.260;2023-05-21T09:39:08;100138.63;;;23.51;49.33
26657;BME280;14279;50.010;8.260;2023-05-21T09:41:36;100140.03;;;23.80;49.59
26657;BME280;14279;50.010;8.260;2023-05-21T09:44:02;100129.56;;;23.27;50.69
26657;BME280;14279;50.010;8.260;2023-05-21T09:46:36;100136.88;;;23.85;48.97
26657;BME280;14279;50.010;8.260;2023-05-21T09:49:02;100134.13;;;24.03;48.63
26657;BME280;14279;50.010;8.260;2023-05-21T09:51:27;100136.47;;;24.31;48.21
26657;BME280;14279;50.010;8.260;2023-05-21T09:53:54;100131.56;;;24.92;46.98
26657;BME280;14279;50.010;8.260;2023-05-21T09:56:25;100132.34;;;25.10;46.10
26657;BME280;14279;50.010;8.260;2023-05-21T09:58:55;100135.25;;;24.83;46.27
26657;BME280;14279;50.010;8.260;2023-05-21T10:01:25;100135.09;;;24.43;46.71
26657;BME280;14279;50.010;8.260;2023-05-21T10:04:03;100139.91;;;23.98;47.46
26657;BME280;14279;50.010;8.260;2023-05-21T10:06:31;100130.47;;;24.04;47.54
26657;BME280;14279;50.010;8.260;2023-05-21T10:09:05;100122.59;;;24.69;46.83
26657;BME280;14279;50.010;8.260;2023-05-21T10:11:33;100116.94;;;24.80;46.64
26657;BME280;14279;50.010;8.260;2023-05-21T10:14:13;100119.31;;;25.23;45.72
26657;BME280;14279;50.010;8.260;2023-05-21T10:16:41;100118.75;;;24.96;45.54
26657;BME280;14279;50.010;8.260;2023-05-21T10:19:06;100115.28;;;24.79;46.21
26657;BME280;14279;50.010;8.260;2023-05-21T10:21:35;100115.09;;;24.97;46.78
26657;BME280;14279;50.010;8.260;2023-05-21T10:24:01;100106.00;;;24.50;47.23
26657;BME280;14279;50.010;8.260;2023-05-21T10:26:27;100105.66;;;24.45;46.68
26657;BME280;14279;50.010;8.260;2023-05-21T10:28:55;100101.19;;;24.37;46.58
26657;BME280;14279;50.010;8.260;2023-05-21T10:31:21;100106.31;;;24.64;46.22
26657;BME280;14279;50.010;8.260;2023-05-21T10:33:47;100098.44;;;25.03;45.54
26657;BME280;14279;50.010;8.260;2023-05-21T10:36:15;100099.59;;;25.41;45.08
26657;BME280;14279;50.010;8.260;2023-05-21T10:38:42;100105.38;;;25.13;44.50
26657;BME280;14279;50.010;8.260;2023-05-21T10:41:08;100097.69;;;24.61;46.01
26657;BME280;14279;50.010;8.260;2023-05-21T10:44:05;100094.69;;;24.65;45.37
26657;BME280;14279;50.010;8.260;2023-05-21T10:52:00;100095.03;;;24.53;45.97
26657;BME280;14279;50.010;8.260;2023-05-21T10:54:50;100088.19;;;24.59;46.55
26657;BME280;14279;50.010;8.260;2023-05-21T10:59:58;100091.84;;;25.86;44.08
26657;BME280;14279;50.010;8.260;2023-05-21T11:02:25;100088.59;;;25.99;43.13
26657;BME280;14279;50.010;8.260;2023-05-21T11:05:00;100098.06;;;25.46;44.96
26657;BME280;14279;50.010;8.260;2023-05-21T11:07:57;100094.63;;;25.92;45.55
26657;BME280;14279;50.010;8.260;2023-05-21T11:10:39;100088.59;;;25.04;46.02
26657;BME280;14279;50.010;8.260;2023-05-21T11:13:11;100091.63;;;25.32;45.54
26657;BME280;14279;50.010;8.260;2023-05-21T11:21:13;100090.63;;;25.33;46.23
26657;BME280;14279;50.010;8.260;2023-05-21T11:23:55;100093.44;;;25.00;47.14
26657;BME280;14279;50.010;8.260;2023-05-21T11:26:22;100085.19;;;25.58;45.51
26657;BME280;14279;50.010;8.260;2023-05-21T11:31:28;100079.78;;;26.51;43.59
26657;BME280;14279;50.010;8.260;2023-05-21T11:34:14;100076.91;;;26.00;45.10
26657;BME280;14279;50.010;8.260;2023-05-21T11:36:47;100087.63;;;24.97;46.56
26657;BME280;14279;50.010;8.260;2023-05-21T11:39:16;100077.69;;;24.90;47.12
26657;BME280;14279;50.010;8.260;2023-05-21T11:41:52;100063.06;;;24.78;47.72
26657;BME280;14279;50.010;8.260;2023-05-21T11:44:21;100074.09;;;25.06;46.63
26657;BME280;14279;50.010;8.260;2023-05-21T11:47:01;100073.28;;;25.46;45.79
26657;BME280;14279;50.010;8.260;2023-05-21T11:49:27;100075.28;;;25.44;46.43
26657;BME280;14279;50.010;8.260;2023-05-21T11:51:52;100066.75;;;25.40;46.62
26657;BME280;14279;50.010;8.260;2023-05-21T11:54:17;100065.41;;;25.13;46.21
26657;BME280;14279;50.010;8.260;2023-05-21T11:56:43;100062.09;;;25.74;45.19
26657;BME280;14279;50.010;8.260;2023-05-21T11:59:14;100062.97;;;25.43;45.02
26657;BME280;14279;50.010;8.260;2023-05-21T12:01:42;100066.75;;;25.48;44.21
26657;BME280;14279;50.010;8.260;2023-05-21T12:04:08;100071.09;;;25.41;45.07
26657;BME280;14279;50.010;8.260;2023-05-21T12:06:35;100063.84;;;26.05;44.32
26657;BME280;14279;50.010;8.260;2023-05-21T12:09:02;100058.91;;;25.78;44.67
26657;BME280;14279;50.010;8.260;2023-05-21T12:11:28;100063.75;;;25.98;44.45
26657;BME280;14279;50.010;8.260;2023-05-21T12:13:54;100063.34;;;26.63;43.15
26657;BME280;14279;50.010;8.260;2023-05-21T12:16:19;100059.31;;;26.82;42.62
26657;BME280;14279;50.010;8.260;2023-05-21T12:18:44;100057.78;;;26.64;43.31
26657;BME280;14279;50.010;8.260;2023-05-21T12:21:10;100061.22;;;26.58;42.92
26657;BME280;14279;50.010;8.260;2023-05-21T12:23:36;100061.84;;;27.05;42.35
26657;BME280;14279;50.010;8.260;2023-05-21T12:26:01;100058.16;;;27.21;42.46
26657;BME280;14279;50.010;8.260;2023-05-21T12:28:28;100056.06;;;27.38;41.65
26657;BME280;14279;50.010;8.260;2023-05-21T12:30:53;100057.25;;;27.36;41.84
26657;BME280;14279;50.010;8.260;2023-05-21T12:33:19;100057.34;;;26.76;42.47
26657;BME280;14279;50.010;8.260;2023-05-21T12:35:45;100060.38;;;26.43;43.14
26657;BME280;14279;50.010;8.260;2023-05-21T12:38:13;100053.34;;;27.32;41.37
26657;BME280;14279;50.010;8.260;2023-05-21T12:40:39;100048.69;;;27.55;40.66
26657;BME280;14279;50.010;8.260;2023-05-21T12:43:05;100052.09;;;26.67;41.72
26657;BME280;14279;50.010;8.260;2023-05-21T12:45:31;100058.72;;;26.56;41.88
26657;BME280;14279;50.010;8.260;2023-05-21T12:48:00;100048.16;;;26.93;41.50
26657;BME280;14279;50.010;8.260;2023-05-21T12:50:25;100047.84;;;26.73;41.33
26657;BME280;14279;50.010;8.260;2023-05-21T12:52:54;100042.94;;;27.22;40.48
26657;BME280;14279;50.010;8.260;2023-05-21T12:55:23;100045.81;;;27.20;40.62
26657;BME280;14279;50.010;8.260;2023-05-21T12:58:00;100043.72;;;27.52;39.44
26657;BME280;14279;50.010;8.260;2023-05-21T13:00:26;100040.03;;;26.71;41.07
26657;BME280;14279;50.010;8.260;2023-05-21T13:02:51;100038.09;;;26.95;40.50
26657;BME280;14279;50.010;8.260;2023-05-21T13:05:16;100041.63;;;26.96;40.77
26657;BME280;14279;50.010;8.260;2023-05-21T13:07:42;100034.09;;;27.80;39.41
26657;BME280;14279;50.010;8.260;2023-05-21T13:10:10;100030.84;;;27.26;38.72
26657;BME280;14279;50.010;8.260;2023-05-21T13:12:36;100030.16;;;27.17;37.72
26657;BME280;14279;50.010;8.260;2023-05-21T13:15:03;100026.34;;;27.26;37.16
26657;BME280;14279;50.010;8.260;2023-05-21T13:17:28;100036.25;;;27.33;37.08
26657;BME280;14279;50.010;8.260;2023-05-21T13:20:17;100027.78;;;27.66;36.29
26657;BME280;14279;50.010;8.260;2023-05-21T13:22:46;100026.47;;;28.05;35.60
26657;BME280;14279;50.010;8.260;2023-05-21T13:25:14;100028.75;;;27.80;36.32
26657;BME280;14279;50.010;8.260;2023-05-21T13:27:44;100032.00;;;27.75;36.39
26657;BME280;14279;50.010;8.260;2023-05-21T13:30:10;100023.78;;;27.77;36.72
26657;BME280;14279;50.010;8.260;2023-05-21T13:32:36;100025.59;;;27.98;36.46
26657;BME280;14279;50.010;8.260;2023-05-21T13:35:02;100024.84;;;27.60;37.21
26657;BME280;14279;50.010;8.260;2023-05-21T13:37:27;100022.50;;;27.51;37.03
26657;BME280;14279;50.010;8.260;2023-05-21T13:39:53;100016.25;;;27.43;37.43
26657;BME280;14279;50.010;8.260;2023-05-21T13:42:18;100020.63;;;28.16;36.74
26657;BME280;14279;50.010;8.260;2023-05-21T13:44:46;100015.06;;;28.18;36.45
26657;BME280;14279;50.010;8.260;2023-05-21T13:47:11;100017.88;;;27.23;37.77
26657;BME280;14279;50.010;8.260;2023-05-21T13:49:38;100016.75;;;27.32;37.04
26657;BME280;14279;50.010;8.260;2023-05-21T13:52:03;100013.25;;;27.32;36.84
26657;BME280;14279;50.010;8.260;2023-05-21T13:54:29;100021.47;;;27.73;36.58
26657;BME280;14279;50.010;8.260;2023-05-21T13:56:54;100012.06;;;28.28;35.76
26657;BME280;14279;50.010;8.260;2023-05-21T13:59:20;100014.53;;;27.57;36.86
26657;BME280;14279;50.010;8.260;2023-05-21T14:01:46;100011.09;;;27.85;37.04
26657;BME280;14279;50.010;8.260;2023-05-21T14:04:12;100007.59;;;28.42;36.00
26657;BME280;14279;50.010;8.260;2023-05-21T14:06:37;100015.72;;;28.55;35.78
26657;BME280;14279;50.010;8.260;2023-05-21T14:09:03;100015.47;;;28.15;35.94
26657;BME280;14279;50.010;8.260;2023-05-21T14:11:29;100016.91;;;27.67;36.37
26657;BME280;14279;50.010;8.260;2023-05-21T14:13:56;100005.66;;;28.00;35.73
26657;BME280;14279;50.010;8.260;2023-05-21T14:16:22;100005.19;;;27.90;36.03
26657;BME280;14279;50.010;8.260;2023-05-21T14:18:49;100007.31;;;28.30;35.62
26657;BME280;14279;50.010;8.260;2023-05-21T14:21:15;100008.09;;;27.73;37.34
26657;BME280;14279;50.010;8.260;2023-05-21T14:23:40;100007.47;;;27.71;37.29